| time (UTC) | temp F | wind direction | speed MPH | gust MPH | rain 1hr in | rain 24hr in | rain mn in | humidity % | barometer mb |
| 20260831111521 | 62 | 183 | 1.0 | 0.0 | 0.00 | 0.00 | 0.00 | 62 | 1002.6 |
| 20260831110020 | 62 | 170 | 1.0 | 0.0 | 0.00 | 0.00 | 0.00 | 67 | 1002.7 |
| 20260831104521 | 62 | 182 | 0.0 | 0.0 | 0.00 | 0.00 | 0.00 | 66 | 1002.0 |
| 20260831103020 | 63 | 169 | 1.0 | 0.0 | 0.00 | 0.00 | 0.00 | 71 | 1001.8 |
| 20260831101518 | 62 | 186 | 1.0 | 0.0 | 0.00 | 0.00 | 0.00 | 70 | 1002.4 |
| 20260831100016 | 62 | 156 | 0.0 | 0.0 | 0.00 | 0.00 | 0.00 | 72 | 1002.5 |
| 20260831094516 | 62 | 175 | 0.0 | 0.0 | 0.00 | 0.00 | 0.00 | 74 | 1002.2 |
| 20260831093016 | 62 | 146 | 0.0 | 0.0 | 0.00 | 0.00 | 0.00 | 74 | 1002.6 |
| 20260831091515 | 62 | 146 | 0.0 | 0.0 | 0.00 | 0.00 | 0.00 | 75 | 1002.3 |
| 20260831090015 | 62 | 318 | 1.0 | 0.0 | 0.00 | 0.00 | 0.00 | 76 | 1003.4 |
| 20260831084512 | 62 | 356 | 2.0 | 0.0 | 0.00 | 0.00 | 0.00 | 74 | 1002.9 |
| 20260831083008 | 64 | 320 | 1.0 | 0.0 | 0.00 | 0.00 | 0.00 | 71 | 1002.6 |
| 20260831081510 | 65 | 142 | 2.0 | 0.0 | 0.00 | 0.00 | 0.00 | 69 | 1002.6 |
| 20260831080016 | 65 | 129 | 3.0 | 0.0 | 0.00 | 0.00 | 0.00 | 71 | 999.4 |
| 20260831074505 | 64 | 175 | 1.0 | 0.0 | 0.00 | 0.00 | 0.00 | 73 | 1000.1 |
| 20260831073002 | 64 | 73 | 0.0 | 0.0 | 0.00 | 0.00 | 0.00 | 72 | 1000.1 |
| 20260831071500 | 65 | 145 | 1.0 | 0.0 | 0.00 | 0.00 | 0.00 | 70 | 1000.1 |
| 20260831070100 | 65 | 146 | 2.0 | 0.0 | 0.00 | 0.00 | 0.00 | 70 | 1000.8 |
| 20260831064558 | 65 | 154 | 3.0 | 0.0 | 0.00 | 0.00 | 0.00 | 71 | 1000.3 |
| 20260831063057 | 66 | 100 | 3.0 | 0.0 | 0.00 | 0.00 | 0.00 | 70 | 1000.5 |
| 20260831061604 | 66 | 136 | 4.0 | 0.0 | 0.00 | 0.00 | 0.00 | 69 | 1000.8 |
| 20260831060054 | 66 | 145 | 1.0 | 0.0 | 0.00 | 0.00 | 0.00 | 68 | 1000.8 |
| 20260831054552 | 67 | 131 | 3.0 | 0.0 | 0.00 | 0.00 | 0.00 | 67 | 1001.2 |
| 20260831053052 | 67 | 159 | 2.0 | 0.0 | 0.00 | 0.00 | 0.00 | 66 | 1001.2 |
| 20260831051559 | 66 | 216 | 0.0 | 0.0 | 0.00 | 0.00 | 0.00 | 68 | 1001.2 |
| 20260831050051 | 66 | 36 | 2.0 | 0.0 | 0.00 | 0.00 | 0.00 | 73 | 1001.8 |
| 20260831044558 | 66 | 197 | 3.0 | 0.0 | 0.00 | 0.00 | 0.00 | 71 | 1001.7 |
| 20260831043050 | 66 | 245 | 2.0 | 0.0 | 0.00 | 0.00 | 0.00 | 75 | 1001.5 |
| 20260831041552 | 66 | 259 | 1.0 | 0.0 | 0.00 | 0.00 | 0.00 | 75 | 1001.1 |
| 20260831040049 | 66 | 242 | 1.0 | 0.0 | 0.00 | 0.00 | 0.00 | 74 | 1001.5 |
| 20260831034551 | 67 | 108 | 1.0 | 0.0 | 0.00 | 0.00 | 0.00 | 74 | 1001.4 |
| 20260831033047 | 67 | 111 | 2.0 | 0.0 | 0.00 | 0.00 | 0.00 | 72 | 1001.0 |
| 20260831031547 | 67 | 115 | 1.0 | 0.0 | 0.00 | 0.00 | 0.00 | 72 | 1001.1 |
| 20260831030046 | 67 | 154 | 1.0 | 0.0 | 0.00 | 0.00 | 0.00 | 72 | 1001.8 |
| 20260831024546 | 68 | 215 | 1.0 | 0.0 | 0.00 | 0.00 | 0.00 | 70 | 1001.6 |
| 20260831023046 | 67 | 145 | 3.0 | 0.0 | 0.00 | 0.00 | 0.00 | 72 | 1001.5 |
| 20260831021547 | 67 | 161 | 3.0 | 0.0 | 0.00 | 0.00 | 0.00 | 71 | 1001.3 |
| 20260831020051 | 67 | 183 | 0.0 | 0.0 | 0.00 | 0.00 | 0.00 | 72 | 1002.2 |
| 20260831014543 | 68 | 185 | 0.0 | 0.0 | 0.00 | 0.00 | 0.00 | 70 | 1002.3 |
| 20260831013053 | 69 | 139 | 0.0 | 0.0 | 0.00 | 0.00 | 0.00 | 69 | 1001.7 |
| 20260831011546 | 69 | 169 | 1.0 | 0.0 | 0.00 | 0.00 | 0.00 | 68 | 1001.7 |
| 20260831010050 | 70 | 168 | 2.0 | 0.0 | 0.00 | 0.00 | 0.00 | 67 | 1001.7 |
| 20260831004542 | 70 | 278 | 1.0 | 0.0 | 0.00 | 0.00 | 0.00 | 67 | 1001.8 |
| 20260831003042 | 70 | 97 | 6.0 | 0.0 | 0.00 | 0.00 | 0.00 | 66 | 1001.5 |
| 20260831001541 | 71 | 94 | 6.0 | 0.0 | 0.00 | 0.00 | 0.00 | 64 | 1001.7 |
| 20260831000041 | 72 | 98 | 4.0 | 0.0 | 0.00 | 0.00 | 0.00 | 59 | 1001.9 |
| 20260830234543 | 73 | 110 | 6.0 | 0.0 | 0.00 | 0.00 | 0.00 | 58 | 1001.6 |
| 20260830233040 | 72 | 84 | 7.0 | 0.0 | 0.00 | 0.00 | 0.00 | 54 | 1001.9 |
| 20260830231539 | 72 | 104 | 7.0 | 0.0 | 0.00 | 0.00 | 0.00 | 55 | 1001.2 |
| 20260830230039 | 72 | 116 | 4.0 | 0.0 | 0.00 | 0.00 | 0.00 | 56 | 1001.1 |
| 20260830224539 | 74 | 69 | 0.0 | 0.0 | 0.00 | 0.00 | 0.00 | 51 | 1001.5 |
| 20260830223047 | 72 | 25 | 0.0 | 0.0 | 0.00 | 0.00 | 0.00 | 55 | 1001.6 |
| 20260830221545 | 71 | 67 | 0.0 | 0.0 | 0.00 | 0.00 | 0.00 | 60 | 1001.9 |
| 20260830220038 | 69 | 63 | 0.0 | 0.0 | 0.00 | 0.00 | 0.00 | 62 | 1002.9 |
| 20260830214538 | 68 | 235 | 2.0 | 0.0 | 0.00 | 0.00 | 0.00 | 65 | 1002.8 |
| 20260830213037 | 67 | 347 | 5.0 | 0.0 | 0.00 | 0.00 | 0.00 | 62 | 1002.9 |
| 20260830211537 | 66 | 285 | 7.0 | 0.0 | 0.00 | 0.00 | 0.00 | 70 | 1003.7 |
| 20260830210037 | 65 | 293 | 9.0 | 0.0 | 0.00 | 0.00 | 0.00 | 70 | 1003.4 |
| 20260830204535 | 70 | 308 | 13.0 | 0.0 | 0.00 | 0.00 | 0.00 | 58 | 1002.3 |
| 20260830203034 | 77 | 251 | 11.0 | 0.0 | 0.00 | 0.00 | 0.00 | 46 | 999.6 |
| 20260830201533 | 82 | 266 | 5.0 | 0.0 | 0.00 | 0.00 | 0.00 | 42 | 998.3 |
| 20260830200042 | 83 | 130 | 1.0 | 0.0 | 0.00 | 0.00 | 0.00 | 41 | 997.8 |
| 20260830194531 | 81 | 110 | 3.0 | 0.0 | 0.00 | 0.00 | 0.00 | 39 | 997.6 |
| 20260830193027 | 81 | 116 | 4.0 | 0.0 | 0.00 | 0.00 | 0.00 | 41 | 997.4 |
| 20260830191528 | 81 | 75 | 5.0 | 0.0 | 0.00 | 0.00 | 0.00 | 41 | 998.0 |
| 20260830190041 | 80 | 129 | 4.0 | 0.0 | 0.00 | 0.00 | 0.00 | 43 | 997.8 |
| 20260830184521 | 80 | 86 | 4.0 | 0.0 | 0.00 | 0.00 | 0.00 | 44 | 997.9 |
| 20260830183021 | 79 | 141 | 5.0 | 0.0 | 0.00 | 0.00 | 0.00 | 44 | 998.5 |
| 20260830181521 | 78 | 100 | 5.0 | 0.0 | 0.00 | 0.00 | 0.00 | 45 | 998.4 |
| 20260830180024 | 79 | 90 | 3.0 | 0.0 | 0.00 | 0.00 | 0.00 | 44 | 998.7 |
| 20260830174519 | 79 | 136 | 4.0 | 0.0 | 0.00 | 0.00 | 0.00 | 43 | 999.2 |
| 20260830173018 | 78 | 63 | 4.0 | 0.0 | 0.00 | 0.00 | 0.00 | 45 | 999.7 |
| 20260830171517 | 77 | 150 | 5.0 | 0.0 | 0.00 | 0.00 | 0.00 | 49 | 999.5 |
| 20260830170016 | 77 | 129 | 5.0 | 0.0 | 0.00 | 0.00 | 0.00 | 49 | 999.5 |
| 20260830164516 | 78 | 76 | 4.0 | 0.0 | 0.00 | 0.00 | 0.00 | 48 | 999.7 |
| 20260830163015 | 77 | 120 | 4.0 | 0.0 | 0.00 | 0.00 | 0.00 | 48 | 1000.0 |
| 20260830161512 | 77 | 104 | 2.0 | 0.0 | 0.00 | 0.00 | 0.00 | 48 | 1000.0 |
| 20260830160010 | 75 | 196 | 0.0 | 0.0 | 0.00 | 0.00 | 0.00 | 49 | 1000.0 |
| 20260830154506 | 74 | 262 | 0.0 | 0.0 | 0.00 | 0.00 | 0.00 | 53 | 1000.4 |
| 20260830153004 | 73 | 36 | 1.0 | 0.0 | 0.00 | 0.00 | 0.00 | 58 | 1000.1 |
| 20260830151559 | 72 | 304 | 1.0 | 0.0 | 0.00 | 0.00 | 0.00 | 61 | 1000.5 |
| 20260830150104 | 71 | 163 | 0.0 | 0.0 | 0.00 | 0.00 | 0.00 | 60 | 1000.3 |
| 20260830144553 | 69 | 150 | 2.0 | 0.0 | 0.00 | 0.00 | 0.00 | 61 | 1000.1 |
| 20260830143103 | 68 | 119 | 0.0 | 0.0 | 0.00 | 0.00 | 0.00 | 62 | 1000.2 |
| 20260830141549 | 67 | 242 | 0.0 | 0.0 | 0.00 | 0.00 | 0.00 | 62 | 1000.7 |
| 20260830140047 | 64 | 214 | 0.0 | 0.0 | 0.00 | 0.00 | 0.00 | 65 | 1000.2 |
| 20260830134546 | 63 | 162 | 0.0 | 0.0 | 0.00 | 0.00 | 0.00 | 67 | 1000.4 |
| 20260830133048 | 63 | 138 | 0.0 | 0.0 | 0.00 | 0.00 | 0.00 | 67 | 1000.4 |
| 20260830131546 | 63 | 188 | 0.0 | 0.0 | 0.00 | 0.00 | 0.00 | 64 | 1000.4 |
| 20260830130047 | 62 | 235 | 0.0 | 0.0 | 0.00 | 0.00 | 0.00 | 65 | 1000.4 |
| 20260830124545 | 62 | 233 | 0.0 | 0.0 | 0.00 | 0.00 | 0.00 | 64 | 1000.3 |
| 20260830123044 | 62 | 261 | 0.0 | 0.0 | 0.00 | 0.00 | 0.00 | 65 | 1000.0 |
| 20260830121543 | 62 | 236 | 0.0 | 0.0 | 0.00 | 0.00 | 0.00 | 64 | 999.8 |
| 20260830120044 | 61 | 152 | 0.0 | 0.0 | 0.00 | 0.00 | 0.00 | 67 | 999.4 |
| 20260830114541 | 62 | 126 | 2.0 | 0.0 | 0.00 | 0.00 | 0.00 | 68 | 999.0 |
| 20260830113040 | 62 | 152 | 0.0 | 0.0 | 0.00 | 0.00 | 0.00 | 66 | 998.9 |